KBMG/BMG METAR and TAF weather

Enter ICAO airport designator
Station Type Date Time Source
KBMG METAR 2018/04/23 10:53 UTC NOAA

KBMG 231053Z 10007KT 10SM -RA OVC075 12/03 A3006 RMK AO2 SLP177 P0000 T01170033


Station Type Date Time Source
KBMG Decoded METAR 2018/04/23 10:53 UTC NOAA

MONROE COUNTY AIRPORT, IN, United States (KBMG) 39-09N 086-37W 257M
Apr 23, 2018 - 06:53 AM EDT / 2018.04.23 1053 UTC
Wind: from the E (100 degrees) at 8 MPH (7 KT):0
Visibility: 10 mile(s):0
Sky conditions: overcast
Weather: light rain
Precipitation last hour: A trace
Temperature: 53.1 F (11.7 C)
Dew Point: 37.9 F (3.3 C)
Relative Humidity: 56%
Pressure (altimeter): 30.06 in. Hg (1017 hPa)
ob: KBMG 231053Z 10007KT 10SM -RA OVC075 12/03 A3006 RMK AO2 SLP177 P0000 T01170033
cycle: 11

Station Type Date Time Source
KBMG TAF 2018/04/23 12:20 UTC NOAA

TAF KBMG 231120Z 2312/2412 09010KT 5SM SHRA OVC035
FM231800 10012KT P6SM OVC015
TEMPO 2318/2321 4SM SHRA OVC008
FM232100 09015KT P6SM OVC020 PROB30 2321/2403 4SM -SHRA OVC010
FM240300 09010KT P6SM OVC008
FM241000 08005KT P6SM OVC010
AMD LTD TO CLD VIS AND WIND TIL 231300


Example: see airport list